TAF Text Data
IDs:
Format:
Raw Decoded Include METAR

Data at: 0709 UTC 23 Oct 2018

KGUY 230653Z AUTO 34007KT 10SM CLR 09/06 A3016 RMK AO2 SLP181 T00940061

KGUY 230548Z 2306/2406 VRB06KT P6SM SCT250
  FM231600 11008KT P6SM BKN140
  FM232100 14011G17KT P6SM BKN050
  FM240100 14010KT P6SM OVC050